Time,TemperatureF,DewpointF,PressureIn,WindDirection,WindDirectionDegrees,WindSpeedMPH,WindSpeedGustMPH,Humidity,HourlyPrecipIn,Conditions,Clouds,dailyrainin,SoftwareType,DateUTC
2013-01-23 00:09:00,14.5,4.0,30.41,NW,305,1.0,4.0,62,0.00,,,0.00,weatherlink.com 1.10,2013-01-23 06:09:00,
2013-01-23 00:24:00,14.5,3.0,30.40,WNW,285,3.0,5.0,61,0.00,,,0.00,weatherlink.com 1.10,2013-01-23 06:24:00,
2013-01-23 00:39:00,14.6,4.0,30.40,WNW,285,1.0,4.0,62,0.00,,,0.00,weatherlink.com 1.10,2013-01-23 06:39:00,
2013-01-23 00:54:00,14.5,4.0,30.40,WNW,283,0.0,4.0,62,0.00,,,0.00,weatherlink.com 1.10,2013-01-23 06:54:00,
2013-01-23 01:09:00,14.6,4.0,30.39,WNW,283,0.0,1.0,63,0.00,,,0.00,weatherlink.com 1.10,2013-01-23 07:09:00,
2013-01-23 01:24:00,14.7,4.0,30.39,WNW,283,1.0,3.0,63,0.00,,,0.00,weatherlink.com 1.10,2013-01-23 07:24:00,
2013-01-23 01:39:00,14.7,3.0,30.39,WNW,283,2.0,4.0,61,0.00,,,0.00,weatherlink.com 1.10,2013-01-23 07:39:00,
2013-01-23 02:09:00,14.8,4.0,30.39,WNW,294,1.0,5.0,63,0.00,,,0.00,weatherlink.com 1.10,2013-01-23 08:09:00,
2013-01-23 02:24:00,14.9,4.0,30.39,WNW,294,4.0,4.0,63,0.00,,,0.00,weatherlink.com 1.10,2013-01-23 08:24:00,
2013-01-23 02:39:00,14.9,4.0,30.38,WNW,293,2.0,4.0,62,0.00,,,0.00,weatherlink.com 1.10,2013-01-23 08:39:00,
2013-01-23 02:54:00,15.0,4.0,30.38,WNW,293,0.0,3.0,62,0.00,,,0.00,weatherlink.com 1.10,2013-01-23 08:54:00,
2013-01-23 03:09:00,15.2,4.0,30.37,WNW,293,2.0,2.0,61,0.00,,,0.00,weatherlink.com 1.10,2013-01-23 09:09:00,
2013-01-23 03:24:00,15.2,4.0,30.37,WNW,293,2.0,3.0,62,0.00,,,0.00,weatherlink.com 1.10,2013-01-23 09:24:00,
2013-01-23 03:39:00,15.2,4.0,30.37,WNW,293,0.0,2.0,61,0.00,,,0.00,weatherlink.com 1.10,2013-01-23 09:39:00,
2013-01-23 03:54:00,15.6,4.0,30.36,WSW,249,3.0,4.0,61,0.00,,,0.00,weatherlink.com 1.10,2013-01-23 09:54:00,
2013-01-23 04:09:00,15.5,4.0,30.36,SW,224,2.0,3.0,60,0.00,,,0.00,weatherlink.com 1.10,2013-01-23 10:09:00,
2013-01-23 04:24:00,15.5,4.0,30.35,SSW,209,1.0,3.0,61,0.00,,,0.00,weatherlink.com 1.10,2013-01-23 10:24:00,
2013-01-23 04:40:00,15.6,4.0,30.34,South,183,1.0,3.0,60,0.00,,,0.00,weatherlink.com 1.10,2013-01-23 10:40:00,
2013-01-23 04:55:00,15.8,4.0,30.34,South,174,0.0,3.0,60,0.00,,,0.00,weatherlink.com 1.10,2013-01-23 10:55:00,
2013-01-23 05:10:00,16.0,5.0,30.34,South,175,2.0,4.0,62,0.00,,,0.00,weatherlink.com 1.10,2013-01-23 11:10:00,
2013-01-23 05:25:00,16.1,5.0,30.33,SSE,154,2.0,6.0,62,0.00,,,0.00,weatherlink.com 1.10,2013-01-23 11:25:00,
2013-01-23 05:40:00,16.1,5.0,30.34,SSE,154,1.0,3.0,62,0.00,,,0.00,weatherlink.com 1.10,2013-01-23 11:40:00,
2013-01-23 05:55:00,16.3,5.0,30.34,SSE,159,4.0,4.0,62,0.00,,,0.00,weatherlink.com 1.10,2013-01-23 11:55:00,
2013-01-23 06:10:00,16.3,5.0,30.34,South,189,1.0,5.0,62,0.00,,,0.00,weatherlink.com 1.10,2013-01-23 12:10:00,
2013-01-23 06:25:00,16.3,5.0,30.34,SSE,168,0.0,7.0,61,0.00,,,0.00,weatherlink.com 1.10,2013-01-23 12:25:00,
2013-01-23 06:40:00,16.5,5.0,30.34,South,173,2.0,7.0,61,0.00,,,0.00,weatherlink.com 1.10,2013-01-23 12:40:00,
2013-01-23 06:55:00,16.7,5.0,30.33,South,173,5.0,7.0,59,0.00,,,0.00,weatherlink.com 1.10,2013-01-23 12:55:00,
2013-01-23 07:10:00,16.7,4.0,30.33,South,175,2.0,7.0,58,0.00,,,0.00,weatherlink.com 1.10,2013-01-23 13:10:00,
2013-01-23 07:25:00,17.0,5.0,30.32,SSE,155,4.0,7.0,59,0.00,,,0.00,weatherlink.com 1.10,2013-01-23 13:25:00,
2013-01-23 07:40:00,17.0,5.0,30.31,South,173,2.0,9.0,60,0.00,,,0.00,weatherlink.com 1.10,2013-01-23 13:40:00,
2013-01-23 07:55:00,17.3,6.0,30.31,South,181,4.0,6.0,62,0.00,,,0.00,weatherlink.com 1.10,2013-01-23 13:55:00,
2013-01-23 08:10:00,17.6,7.0,30.31,SSW,202,4.0,7.0,63,0.00,,,0.00,weatherlink.com 1.10,2013-01-23 14:10:00,
2013-01-23 08:25:00,17.8,7.0,30.32,SW,230,0.0,6.0,62,0.00,,,0.00,weatherlink.com 1.10,2013-01-23 14:25:00,
2013-01-23 08:40:00,17.9,7.0,30.31,South,175,6.0,10.0,63,0.00,,,0.00,weatherlink.com 1.10,2013-01-23 14:40:00,
2013-01-23 08:55:00,18.5,7.0,30.31,SSW,200,2.0,9.0,62,0.00,,,0.00,weatherlink.com 1.10,2013-01-23 14:55:00,
2013-01-23 09:10:00,18.7,8.0,30.31,South,183,2.0,10.0,62,0.00,,,0.00,weatherlink.com 1.10,2013-01-23 15:10:00,
2013-01-23 09:25:00,19.2,8.0,30.31,SSE,160,3.0,7.0,62,0.00,,,0.00,weatherlink.com 1.10,2013-01-23 15:25:00,
2013-01-23 09:40:00,19.4,8.0,30.31,SSE,162,4.0,9.0,62,0.00,,,0.00,weatherlink.com 1.10,2013-01-23 15:40:00,
2013-01-23 09:55:00,19.7,9.0,30.31,SSE,149,4.0,9.0,62,0.00,,,0.00,weatherlink.com 1.10,2013-01-23 15:55:00,
2013-01-23 10:10:00,20.2,9.0,30.31,SSE,148,8.0,10.0,62,0.00,,,0.00,weatherlink.com 1.10,2013-01-23 16:10:00,
2013-01-23 10:25:00,20.7,9.0,30.30,SSE,160,5.0,10.0,61,0.00,,,0.00,weatherlink.com 1.10,2013-01-23 16:25:00,
2013-01-23 10:40:00,21.2,10.0,30.29,South,178,7.0,8.0,62,0.00,,,0.00,weatherlink.com 1.10,2013-01-23 16:40:00,
2013-01-23 10:55:00,21.8,10.0,30.29,South,187,5.0,12.0,61,0.00,,,0.00,weatherlink.com 1.10,2013-01-23 16:55:00,
2013-01-23 11:10:00,22.2,11.0,30.28,SSE,159,8.0,10.0,61,0.00,,,0.00,weatherlink.com 1.10,2013-01-23 17:10:00,
2013-01-23 11:25:00,23.4,11.0,30.26,SE,138,7.0,11.0,59,0.00,,,0.00,weatherlink.com 1.10,2013-01-23 17:25:00,
2013-01-23 11:40:00,23.9,11.0,30.25,SSE,168,5.0,9.0,57,0.00,,,0.00,weatherlink.com 1.10,2013-01-23 17:40:00,
2013-01-23 12:04:00,26.7,12.0,30.22,SW,230,7.0,11.0,53,0.00,,,0.00,weatherlink.com 1.10,2013-01-23 18:04:00,
2013-01-23 12:11:00,27.2,12.0,30.22,South,169,8.0,13.0,52,0.00,,,0.00,weatherlink.com 1.10,2013-01-23 18:11:00,
2013-01-23 12:26:00,28.6,12.0,30.20,SE,136,8.0,11.0,51,0.00,,,0.00,weatherlink.com 1.10,2013-01-23 18:26:00,
2013-01-23 12:41:00,28.8,12.0,30.20,SW,227,3.0,10.0,50,0.00,,,0.00,weatherlink.com 1.10,2013-01-23 18:41:00,
2013-01-23 12:58:00,29.9,13.0,30.18,WSW,248,6.0,11.0,49,0.00,,,0.00,weatherlink.com 1.10,2013-01-23 18:58:00,